Time;durP1;ratioP1;P1;durP2;ratioP2;P2;SDS_P1;SDS_P2;PMS_P1;PMS_P2;Temp;Humidity;BMP_temperature;BMP_pressure;BME280_temperature;BME280_humidity;BME280_pressure;Samples;Min_cycle;Max_cycle;Signal;HPM_P1;HPM_P2
2021/08/20 00:00:16;;;;;;;7.47;3.47;;;;;;;18.58;60.75;98724.84;5072006;28;20052;-50
2021/08/20 00:02:42;;;;;;;5.93;3.05;;;;;;;18.46;61.08;98725.81;5072056;28;20047;-50
2021/08/20 00:05:09;;;;;;;11.82;4.30;;;;;;;18.33;61.31;98734.16;5071896;28;20028;-49
2021/08/20 00:07:35;;;;;;;7.90;3.58;;;;;;;18.34;61.74;98730.47;5071907;28;20036;-50
2021/08/20 00:10:01;;;;;;;11.25;4.57;;;;;;;18.31;61.39;98722.97;5074004;28;20028;-50
2021/08/20 00:12:27;;;;;;;8.65;4.78;;;;;;;18.26;61.78;98717.63;5112449;28;20051;-50
2021/08/20 00:14:57;;;;;;;7.13;3.60;;;;;;;18.22;61.72;98719.19;5094111;28;20559;-50
2021/08/20 00:17:25;;;;;;;20.67;13.88;;;;;;;18.07;62.15;98723.28;5094017;28;20039;-50
2021/08/20 00:19:50;;;;;;;8.55;3.67;;;;;;;18.08;62.27;98724.84;5112360;28;20019;-50
2021/08/20 00:22:16;;;;;;;12.32;3.88;;;;;;;18.03;62.30;98724.00;5094070;28;20031;-49
2021/08/20 00:24:42;;;;;;;6.88;3.47;;;;;;;17.80;62.85;98728.47;5112253;28;20023;-49
2021/08/20 00:27:09;;;;;;;6.00;2.50;;;;;;;17.61;63.22;98722.66;5112528;28;20028;-49
2021/08/20 00:29:34;;;;;;;5.22;2.80;;;;;;;17.33;63.57;98724.41;5112221;28;20031;-50
2021/08/20 00:32:00;;;;;;;8.40;4.30;;;;;;;17.10;64.78;98736.00;5112176;28;20024;-49
2021/08/20 00:34:26;;;;;;;4.82;2.80;;;;;;;17.08;64.90;98731.97;5112203;28;20447;-50
2021/08/20 00:36:52;;;;;;;4.35;2.45;;;;;;;17.13;65.15;98718.81;5112108;28;20023;-49
2021/08/20 00:39:18;;;;;;;7.88;3.40;;;;;;;17.15;65.24;98724.66;5112177;28;20035;-49
2021/08/20 00:41:46;;;;;;;7.25;2.70;;;;;;;17.44;64.71;98716.59;5093756;28;20072;-49
2021/08/20 00:44:12;;;;;;;8.73;5.13;;;;;;;17.54;64.12;98717.50;5112137;28;20050;-49
2021/08/20 00:46:39;;;;;;;5.22;2.95;;;;;;;17.64;63.75;98719.50;5093832;28;20485;-49
2021/08/20 00:49:05;;;;;;;5.40;2.85;;;;;;;17.63;63.55;98714.47;5112122;28;20028;-50
2021/08/20 00:51:35;;;;;;;6.65;3.20;;;;;;;17.67;63.63;98713.72;5116205;28;20043;-50
2021/08/20 00:54:02;;;;;;;9.43;7.93;;;;;;;17.72;63.34;98712.97;5116224;28;20061;-50
2021/08/20 00:56:29;;;;;;;8.57;3.13;;;;;;;17.77;63.50;98708.53;5116126;28;20024;-49
2021/08/20 00:58:55;;;;;;;7.72;2.67;;;;;;;17.52;63.47;98710.84;5116044;28;20073;-50
2021/08/20 01:01:21;;;;;;;4.53;3.03;;;;;;;17.33;64.28;98713.78;5116024;28;20528;-49
2021/08/20 01:03:47;;;;;;;7.40;3.50;;;;;;;17.22;64.58;98708.56;5097624;28;20063;-49
2021/08/20 01:06:13;;;;;;;6.00;2.88;;;;;;;17.11;64.96;98711.06;5115969;28;20022;-49
2021/08/20 01:08:39;;;;;;;4.97;2.60;;;;;;;16.96;65.35;98718.78;5097601;28;20032;-50
2021/08/20 01:11:08;;;;;;;7.75;4.68;;;;;;;16.66;66.21;98722.53;5115578;28;20571;-50
2021/08/20 01:13:35;;;;;;;7.30;3.20;;;;;;;16.40;67.30;98713.34;5115819;28;20024;-49
2021/08/20 01:16:02;;;;;;;7.80;2.92;;;;;;;16.20;67.87;98703.16;5097451;28;20027;-49
2021/08/20 01:18:36;;;;;;;7.80;2.70;;;;;;;16.12;68.13;98714.13;5115605;28;20020;-49
2021/08/20 01:21:05;;;;;;;6.25;3.03;;;;;;;16.10;68.33;98711.72;5115703;28;20036;-52
2021/08/20 01:23:30;;;;;;;10.13;2.97;;;;;;;16.13;68.38;98711.22;5115644;28;20016;-49
2021/08/20 01:25:58;;;;;;;9.82;2.55;;;;;;;16.23;68.16;98707.97;5097243;28;20389;-49
2021/08/20 01:28:24;;;;;;;6.22;2.85;;;;;;;16.31;67.85;98704.94;5115554;28;20103;-50
2021/08/20 01:31:12;;;;;;;9.73;3.92;;;;;;;16.31;67.77;98707.59;5097120;28;20024;-49
2021/08/20 01:33:39;;;;;;;10.70;2.72;;;;;;;16.33;67.75;98708.16;5115441;28;20030;-49
2021/08/20 01:36:05;;;;;;;7.50;3.15;;;;;;;16.46;67.64;98699.13;5097020;28;20048;-49
2021/08/20 01:38:33;;;;;;;4.82;2.20;;;;;;;16.52;67.09;98702.66;5096933;28;20023;-49
2021/08/20 01:40:59;;;;;;;5.22;2.50;;;;;;;16.31;67.46;98706.78;5115296;28;20016;-49
2021/08/20 01:43:25;;;;;;;7.75;2.53;;;;;;;16.09;68.09;98710.09;5096906;28;20409;-49
2021/08/20 01:45:52;;;;;;;10.75;5.45;;;;;;;16.13;68.25;98708.56;5115195;28;20016;-49
2021/08/20 01:48:18;;;;;;;11.98;9.57;;;;;;;16.29;67.85;98708.88;5096803;28;20019;-50
2021/08/20 01:50:43;;;;;;;7.30;3.88;;;;;;;16.28;67.65;98699.31;5115285;28;20027;-50
2021/08/20 01:53:14;;;;;;;7.70;3.28;;;;;;;16.15;68.06;98703.06;5115109;28;20019;-49
2021/08/20 01:55:41;;;;;;;7.30;2.78;;;;;;;16.23;68.21;98707.19;5096703;28;20471;-50
2021/08/20 01:58:08;;;;;;;6.82;2.95;;;;;;;16.36;67.49;98702.41;5114854;28;20038;-50
2021/08/20 02:00:34;;;;;;;13.70;6.97;;;;;;;16.52;67.17;98705.31;5114808;28;20024;-50
2021/08/20 02:03:01;;;;;;;7.47;3.97;;;;;;;16.53;66.80;98694.47;5095697;28;20512;-50
2021/08/20 02:05:27;;;;;;;4.85;3.00;;;;;;;16.45;66.73;98694.06;5114838;28;20030;-49
2021/08/20 02:07:53;;;;;;;5.07;2.72;;;;;;;16.26;67.34;98696.09;5096462;28;20024;-49
2021/08/20 02:10:19;;;;;;;7.28;3.47;;;;;;;16.28;67.69;98700.13;5114449;28;20075;-50
2021/08/20 02:12:44;;;;;;;5.40;2.80;;;;;;;16.49;67.42;98690.69;5114718;28;20047;-50
2021/08/20 02:15:10;;;;;;;4.80;3.92;;;;;;;16.57;66.84;98695.59;5096297;28;20027;-50
2021/08/20 02:17:36;;;;;;;30.95;28.00;;;;;;;16.52;66.56;98697.34;5096192;28;20015;-50
2021/08/20 02:20:02;;;;;;;5.90;3.42;;;;;;;16.36;66.82;98686.50;5114560;28;20500;-49
2021/08/20 02:22:28;;;;;;;7.10;2.92;;;;;;;16.05;67.41;98693.06;5096129;28;20023;-50
2021/08/20 02:24:54;;;;;;;5.90;5.03;;;;;;;15.85;68.38;98700.63;5114465;28;20490;-50
2021/08/20 02:27:22;;;;;;;9.50;5.88;;;;;;;15.85;68.95;98698.75;5114373;28;20078;-49
2021/08/20 02:29:48;;;;;;;8.80;4.78;;;;;;;16.16;68.63;98694.88;5114388;28;20046;-50
2021/08/20 02:32:13;;;;;;;10.32;5.53;;;;;;;16.43;67.93;98694.28;5095951;28;20482;-50
2021/08/20 02:34:39;;;;;;;17.55;13.70;;;;;;;16.63;67.22;98698.34;5095845;28;20027;-49
2021/08/20 02:37:05;;;;;;;5.68;3.25;;;;;;;16.54;66.70;98695.25;5095775;28;20020;-49
2021/08/20 02:39:31;;;;;;;5.30;2.80;;;;;;;16.30;67.00;98694.59;5095856;28;20027;-50
2021/08/20 02:41:56;;;;;;;7.72;3.25;;;;;;;15.94;68.11;98699.22;5114100;28;20028;-50
2021/08/20 02:44:22;;;;;;;3.80;2.60;;;;;;;15.69;68.60;98689.69;5114051;28;20028;-50
2021/08/20 02:46:48;;;;;;;7.00;2.70;;;;;;;15.48;69.45;98693.75;5113977;28;20077;-49
2021/08/20 02:49:13;;;;;;;4.43;2.13;;;;;;;15.31;70.24;98690.19;5113978;28;20027;-49
2021/08/20 02:51:39;;;;;;;15.27;7.10;;;;;;;15.44;70.39;98695.25;5095573;28;20080;-50
2021/08/20 02:54:05;;;;;;;8.25;4.15;;;;;;;15.72;69.60;98689.25;5095786;28;20034;-49
2021/08/20 02:56:31;;;;;;;4.05;2.58;;;;;;;15.81;69.13;98684.41;5095447;28;20024;-49
2021/08/20 02:58:56;;;;;;;6.68;3.67;;;;;;;15.65;69.17;98693.03;5095395;28;20027;-49
2021/08/20 03:01:22;;;;;;;5.72;3.03;;;;;;;15.47;69.75;98689.47;5095366;28;20076;-49
2021/08/20 03:03:48;;;;;;;6.32;4.43;;;;;;;15.27;70.16;98691.69;5113744;28;20036;-50
2021/08/20 03:06:15;;;;;;;5.03;2.70;;;;;;;15.09;71.02;98687.31;5113835;28;20381;-50
2021/08/20 03:08:41;;;;;;;5.88;2.70;;;;;;;15.01;70.96;98687.66;5095317;28;20027;-49
2021/08/20 03:11:07;;;;;;;7.03;2.95;;;;;;;14.92;71.20;98687.19;5080625;28;20127;-50
2021/08/20 03:13:33;;;;;;;25.45;22.90;;;;;;;14.84;71.71;98688.34;5072888;28;20112;-50
2021/08/20 03:15:58;;;;;;;6.50;3.97;;;;;;;14.88;71.78;98686.06;5071505;28;20107;-49
2021/08/20 03:18:24;;;;;;;7.95;2.75;;;;;;;14.85;71.80;98689.97;5072742;28;20056;-50
2021/08/20 03:20:51;;;;;;;9.05;2.72;;;;;;;14.98;71.75;98700.28;5072721;28;20024;-49
2021/08/20 03:23:16;;;;;;;15.48;4.78;;;;;;;15.04;71.32;98692.50;5072600;28;20055;-49
2021/08/20 03:25:42;;;;;;;7.97;3.22;;;;;;;14.96;71.65;98691.78;5072657;28;20060;-49
2021/08/20 03:28:08;;;;;;;9.18;3.30;;;;;;;14.91;71.45;98686.41;5072586;28;20107;-49
2021/08/20 03:30:35;;;;;;;8.90;4.07;;;;;;;14.88;71.59;98694.78;5072822;28;20036;-49
2021/08/20 03:33:01;;;;;;;13.35;4.63;;;;;;;14.87;71.77;98693.19;5072491;28;20020;-50
2021/08/20 03:35:27;;;;;;;10.40;3.30;;;;;;;14.80;71.99;98696.94;5072428;28;20031;-50
2021/08/20 03:37:53;;;;;;;9.73;3.75;;;;;;;14.73;72.12;98695.22;5072295;28;20016;-50
2021/08/20 03:40:19;;;;;;;6.93;3.78;;;;;;;14.70;72.59;98690.38;5070973;28;20513;-50
2021/08/20 03:42:44;;;;;;;7.63;3.60;;;;;;;14.69;72.70;98685.31;5072302;28;20028;-49
2021/08/20 03:45:11;;;;;;;9.00;3.08;;;;;;;14.69;72.36;98677.38;5070898;28;20060;-50
2021/08/20 03:47:37;;;;;;;12.57;3.40;;;;;;;14.57;72.74;98680.81;5072241;28;20494;-49
2021/08/20 03:50:04;;;;;;;12.32;3.03;;;;;;;14.59;72.66;98683.25;5072197;28;20030;-49
2021/08/20 03:52:30;;;;;;;12.70;3.70;;;;;;;14.58;72.86;98685.06;5070812;28;20028;-50
2021/08/20 03:54:55;;;;;;;4.65;2.40;;;;;;;14.52;72.63;98683.28;5070783;28;20036;-49
2021/08/20 03:57:21;;;;;;;12.50;3.15;;;;;;;14.55;72.87;98682.06;5071982;28;20463;-52
2021/08/20 03:59:47;;;;;;;5.97;2.50;;;;;;;14.62;72.53;98687.25;5072022;28;20055;-52
2021/08/20 04:02:12;;;;;;;9.23;2.92;;;;;;;14.67;72.51;98685.56;5071984;28;20020;-52
2021/08/20 04:04:38;;;;;;;6.93;2.63;;;;;;;14.74;72.23;98698.66;5070813;28;20111;-52
2021/08/20 04:07:04;;;;;;;4.80;2.33;;;;;;;14.84;72.04;98704.19;5053966;28;20024;-52
2021/08/20 04:09:30;;;;;;;6.18;3.28;;;;;;;15.21;71.67;98696.06;5071961;28;20025;-52
2021/08/20 04:11:55;;;;;;;8.65;2.83;;;;;;;15.51;70.75;98697.75;5107356;28;20573;-50
2021/08/20 04:14:21;;;;;;;9.52;2.53;;;;;;;15.54;69.91;98705.25;5112351;28;20393;-50
2021/08/20 04:16:47;;;;;;;61.13;54.08;;;;;;;15.50;70.13;98710.19;5112399;28;20481;-50
2021/08/20 04:19:12;;;;;;;12.13;3.83;;;;;;;15.58;69.42;98712.47;5112304;28;20128;-49
2021/08/20 04:21:38;;;;;;;6.22;2.97;;;;;;;15.47;69.47;98712.50;5093993;28;20084;-49
2021/08/20 04:24:08;;;;;;;8.80;2.60;;;;;;;15.34;69.50;98714.34;5111980;28;20194;-50
2021/08/20 04:26:34;;;;;;;3.90;2.50;;;;;;;15.14;69.79;98719.16;5094017;28;20153;-50
2021/08/20 04:28:59;;;;;;;12.20;6.32;;;;;;;14.96;70.26;98722.72;5112555;28;20397;-49
2021/08/20 04:31:25;;;;;;;10.18;3.47;;;;;;;14.98;70.72;98721.44;5093938;28;20024;-50
2021/08/20 04:33:51;;;;;;;7.75;3.50;;;;;;;15.12;70.64;98724.69;5112227;28;20024;-49
2021/08/20 04:36:17;;;;;;;7.40;3.33;;;;;;;15.33;70.04;98728.59;5093831;28;20030;-50
2021/08/20 04:38:43;;;;;;;7.53;2.53;;;;;;;15.73;69.92;98724.44;5093817;28;20055;-49
2021/08/20 04:41:09;;;;;;;8.75;2.83;;;;;;;16.18;68.47;98723.78;5112066;28;20027;-49
2021/08/20 04:43:36;;;;;;;10.35;2.60;;;;;;;16.50;67.18;98728.56;5093836;28;20400;-50
2021/08/20 04:46:01;;;;;;;12.30;6.60;;;;;;;16.66;66.73;98732.31;5093688;28;20020;-50
2021/08/20 04:48:27;;;;;;;11.43;2.85;;;;;;;16.68;65.86;98728.41;5112103;28;20091;-50
2021/08/20 04:50:53;;;;;;;7.47;2.90;;;;;;;16.46;65.97;98735.38;5093773;28;20043;-50
2021/08/20 04:53:20;;;;;;;7.57;2.83;;;;;;;16.31;66.17;98731.44;5112054;28;20020;-50
2021/08/20 04:55:46;;;;;;;10.55;3.42;;;;;;;16.46;66.16;98736.22;5093733;28;20512;-50
2021/08/20 04:58:12;;;;;;;4.20;2.75;;;;;;;16.53;65.40;98734.22;5093700;28;20047;-49
2021/08/20 05:00:40;;;;;;;10.23;5.32;;;;;;;16.47;65.48;98734.38;5093602;28;20059;-50
2021/08/20 05:03:05;;;;;;;14.80;5.40;;;;;;;16.35;65.54;98740.50;5111933;28;20020;-49
2021/08/20 05:05:31;;;;;;;26.88;22.65;;;;;;;16.31;65.82;98738.56;5093687;28;20567;-50
2021/08/20 05:07:58;;;;;;;9.23;5.22;;;;;;;16.28;65.57;98745.16;5111923;28;20397;-50
2021/08/20 05:10:24;;;;;;;7.18;3.50;;;;;;;16.36;65.49;98751.94;5093323;28;20071;-49
2021/08/20 05:12:50;;;;;;;9.82;6.68;;;;;;;16.62;64.66;98744.41;5093667;28;20032;-50
2021/08/20 05:15:16;;;;;;;7.57;3.78;;;;;;;16.82;63.86;98738.69;5093504;28;20030;-49
2021/08/20 05:17:41;;;;;;;8.27;3.95;;;;;;;17.01;63.19;98742.75;5111736;28;20055;-49
2021/08/20 05:20:08;;;;;;;7.70;3.25;;;;;;;17.20;62.77;98737.97;5093459;28;20110;-49
2021/08/20 05:22:53;;;;;;;4.75;2.83;;;;;;;17.54;61.81;98735.28;5111770;28;20024;-49
2021/08/20 05:25:20;;;;;;;8.15;3.63;;;;;;;17.92;60.61;98746.97;5095069;28;20030;-49
2021/08/20 05:27:46;;;;;;;12.43;3.75;;;;;;;18.28;59.98;98740.22;5111750;28;20035;-49
2021/08/20 05:30:13;;;;;;;10.88;3.08;;;;;;;18.84;59.50;98742.66;5093370;28;20031;-49
2021/08/20 05:32:40;;;;;;;10.38;3.17;;;;;;;19.20;57.89;98740.28;5111761;28;20027;-50
2021/08/20 05:35:07;;;;;;;8.65;4.38;;;;;;;19.55;57.71;98738.91;5111631;28;20026;-50
2021/08/20 05:37:33;;;;;;;12.70;2.90;;;;;;;19.74;56.81;98748.13;5113807;28;20053;-50
2021/08/20 05:39:58;;;;;;;7.90;3.03;;;;;;;20.05;55.72;98747.44;5115458;28;20024;-50
2021/08/20 05:42:24;;;;;;;4.53;2.28;;;;;;;20.10;54.66;98752.78;5115365;28;20438;-49
2021/08/20 05:44:50;;;;;;;5.30;2.55;;;;;;;19.86;54.75;98752.41;5115313;28;20095;-49
2021/08/20 05:47:16;;;;;;;5.55;2.40;;;;;;;19.48;55.78;98754.31;5096885;28;20119;-50
2021/08/20 05:49:41;;;;;;;5.72;3.15;;;;;;;19.34;56.85;98756.63;5096919;28;20020;-50
2021/08/20 05:52:07;;;;;;;7.72;4.78;;;;;;;19.58;56.56;98751.72;5096747;28;20527;-50
2021/08/20 05:54:33;;;;;;;6.30;3.03;;;;;;;20.12;54.80;98754.13;5096787;28;20060;-50
2021/08/20 05:56:59;;;;;;;7.65;3.10;;;;;;;20.54;53.59;98761.19;5096723;28;20062;-50
2021/08/20 05:59:26;;;;;;;7.97;2.83;;;;;;;20.84;52.43;98759.63;5114925;28;20269;-50
2021/08/20 06:01:52;;;;;;;5.38;3.67;;;;;;;21.20;51.28;98750.84;5114973;28;20090;-50
2021/08/20 06:04:17;;;;;;;4.90;2.58;;;;;;;21.39;50.95;98761.75;5096606;28;20374;-50
2021/08/20 06:06:43;;;;;;;7.30;3.00;;;;;;;21.74;50.12;98748.38;5096464;28;20034;-50
2021/08/20 06:09:09;;;;;;;6.53;3.13;;;;;;;22.16;48.63;98748.22;5096471;28;20024;-50
2021/08/20 06:11:35;;;;;;;6.57;2.63;;;;;;;22.86;48.01;98751.56;5114473;28;20055;-50
2021/08/20 06:14:01;;;;;;;8.32;2.65;;;;;;;23.54;46.15;98755.25;5096388;28;20414;-50
2021/08/20 06:16:26;;;;;;;7.13;3.08;;;;;;;24.19;44.70;98745.97;5114690;28;20027;-50
2021/08/20 06:18:52;;;;;;;5.75;2.50;;;;;;;24.62;43.62;98753.97;5114549;28;20148;-50
2021/08/20 06:21:18;;;;;;;12.25;3.33;;;;;;;25.26;42.76;98752.44;5096471;28;20054;-50
2021/08/20 06:23:44;;;;;;;11.10;2.72;;;;;;;26.00;41.55;98754.31;5096332;28;20055;-50
2021/08/20 06:26:10;;;;;;;9.07;3.55;;;;;;;26.87;39.63;98749.69;5096088;28;20020;-50
2021/08/20 06:28:36;;;;;;;4.97;2.50;;;;;;;27.48;38.43;98746.56;5114468;28;20443;-48
2021/08/20 06:31:04;;;;;;;5.47;3.53;;;;;;;27.71;37.96;98755.41;5114547;28;20051;-48
2021/08/20 06:33:31;;;;;;;8.13;3.13;;;;;;;27.70;37.17;98754.59;5096016;28;20020;-48
2021/08/20 06:35:57;;;;;;;8.02;2.55;;;;;;;27.77;37.21;98747.94;5114245;28;20020;-48
2021/08/20 06:38:23;;;;;;;7.10;2.83;;;;;;;28.01;36.74;98748.38;5114224;28;20019;-48
2021/08/20 06:40:50;;;;;;;20.58;18.50;;;;;;;28.13;36.67;98752.34;5095819;28;20028;-48
2021/08/20 06:43:15;;;;;;;7.13;4.18;;;;;;;28.50;36.55;98751.00;5114112;28;20020;-48
2021/08/20 06:45:41;;;;;;;6.05;3.15;;;;;;;28.59;35.76;98745.59;5114099;28;20030;-47
2021/08/20 06:48:07;;;;;;;10.05;2.95;;;;;;;28.60;35.70;98749.91;5113719;28;20057;-48
2021/08/20 06:50:33;;;;;;;4.88;2.50;;;;;;;28.73;35.50;98748.91;5113977;28;20028;-48
2021/08/20 06:52:59;;;;;;;3.95;2.92;;;;;;;28.81;35.65;98750.81;5113922;28;20069;-48
2021/08/20 06:55:25;;;;;;;8.85;3.33;;;;;;;29.07;35.30;98752.69;5095535;28;20493;-48
2021/08/20 06:57:50;;;;;;;7.13;3.85;;;;;;;29.57;34.60;98749.38;5114001;28;20494;-49
2021/08/20 07:00:17;;;;;;;12.65;3.65;;;;;;;29.99;33.73;98749.50;5095423;28;20507;-48
2021/08/20 07:02:47;;;;;;;6.60;2.85;;;;;;;30.02;33.66;98754.28;5095408;28;20031;-48
2021/08/20 07:05:14;;;;;;;15.02;4.32;;;;;;;29.89;34.10;98749.91;5114312;28;20051;-51
2021/08/20 07:07:41;;;;;;;13.45;3.53;;;;;;;29.74;34.22;98758.56;5095647;28;20039;-51
2021/08/20 07:10:08;;;;;;;15.98;5.00;;;;;;;29.79;34.51;98766.50;5094936;28;20028;-51
2021/08/20 07:12:33;;;;;;;25.50;4.85;;;;;;;30.07;34.20;98756.78;5113575;28;20028;-51
2021/08/20 07:14:59;;;;;;;19.13;4.00;;;;;;;30.30;33.55;98759.22;5113563;28;20024;-49
2021/08/20 07:17:25;;;;;;;16.17;3.58;;;;;;;31.14;32.44;98755.66;5113594;28;20397;-49
2021/08/20 07:19:50;;;;;;;13.85;4.07;;;;;;;32.19;31.48;98755.94;5095096;28;20024;-49
2021/08/20 07:22:19;;;;;;;15.52;4.53;;;;;;;33.00;29.59;98749.66;5113305;28;20027;-49
2021/08/20 07:24:44;;;;;;;15.43;4.45;;;;;;;33.73;28.83;98750.38;5113349;28;20062;-48
2021/08/20 07:27:10;;;;;;;8.23;4.05;;;;;;;33.80;28.14;98751.31;5113195;28;20047;-49
2021/08/20 07:29:36;;;;;;;12.30;5.03;;;;;;;34.10;28.07;98753.53;5113263;28;20024;-49
2021/08/20 07:32:01;;;;;;;12.55;5.60;;;;;;;33.92;27.73;98750.41;5094832;28;20442;-49
2021/08/20 07:34:27;;;;;;;21.13;4.82;;;;;;;33.74;28.74;98752.72;5094795;28;20034;-49
2021/08/20 07:36:53;;;;;;;9.57;4.22;;;;;;;34.05;28.30;98755.72;5094767;28;20028;-49
2021/08/20 07:39:18;;;;;;;13.82;4.10;;;;;;;34.77;27.32;98753.41;5112991;28;20046;-48
2021/08/20 07:41:44;;;;;;;6.07;3.35;;;;;;;34.93;27.16;98749.78;5112994;28;20401;-49
2021/08/20 07:44:14;;;;;;;10.20;3.47;;;;;;;35.13;26.60;98747.81;5094616;28;20043;-49
2021/08/20 07:46:41;;;;;;;6.82;3.63;;;;;;;35.27;26.26;98748.06;5112840;28;20107;-49
2021/08/20 07:49:07;;;;;;;8.02;4.25;;;;;;;34.72;26.87;98755.63;5113077;28;20031;-49
2021/08/20 07:51:33;;;;;;;5.80;3.78;;;;;;;34.17;27.36;98761.13;5094732;28;20031;-49
2021/08/20 07:54:02;;;;;;;9.90;3.88;;;;;;;34.39;28.06;98759.59;5094430;28;20015;-49
2021/08/20 07:56:28;;;;;;;14.38;4.30;;;;;;;35.34;26.75;98758.34;5094431;28;20141;-49
2021/08/20 07:58:55;;;;;;;11.95;4.35;;;;;;;35.63;26.17;98756.06;5112393;28;20418;-50
2021/08/20 08:01:21;;;;;;;11.43;4.22;;;;;;;35.74;26.03;98751.59;5094144;28;20405;-49
2021/08/20 08:03:47;;;;;;;6.13;3.75;;;;;;;35.96;25.58;98755.41;5112537;28;20024;-49
2021/08/20 08:06:13;;;;;;;10.35;4.35;;;;;;;36.02;25.63;98750.41;5112573;28;20030;-49
2021/08/20 08:08:40;;;;;;;6.72;3.30;;;;;;;36.09;25.44;98761.44;5112451;28;20516;-49
2021/08/20 08:11:06;;;;;;;8.85;3.53;;;;;;;36.27;25.44;98757.03;5079902;28;20048;-49
2021/08/20 08:13:35;;;;;;;8.88;3.53;;;;;;;36.17;25.23;98760.41;5071031;28;20028;-49
2021/08/20 08:16:02;;;;;;;7.50;3.50;;;;;;;36.02;25.61;98764.06;5071826;28;20107;-49
2021/08/20 08:18:28;;;;;;;13.50;3.75;;;;;;;35.97;25.87;98762.44;5071795;28;20023;-49
2021/08/20 08:21:12;;;;;;;10.00;3.80;;;;;;;35.96;25.90;98758.13;5071435;28;20048;-49
2021/08/20 08:23:38;;;;;;;8.43;3.50;;;;;;;36.20;25.38;98762.38;5071823;28;20023;-50
2021/08/20 08:26:04;;;;;;;6.65;3.17;;;;;;;36.59;25.14;98757.41;5071715;28;20024;-49
2021/08/20 08:28:30;;;;;;;8.52;4.18;;;;;;;36.87;24.67;98758.16;5070419;28;20024;-52
2021/08/20 08:31:01;;;;;;;4.85;3.38;;;;;;;37.06;24.53;98757.94;5071773;28;20032;-51
2021/08/20 08:33:27;;;;;;;10.05;3.53;;;;;;;37.29;24.32;98763.28;5071765;28;20108;-52
2021/08/20 08:35:55;;;;;;;10.05;3.38;;;;;;;37.23;24.18;98763.97;5071687;28;20107;-52
2021/08/20 08:38:24;;;;;;;6.00;3.78;;;;;;;36.97;24.47;98754.72;5071862;28;20371;-52
2021/08/20 08:40:50;;;;;;;11.82;3.60;;;;;;;36.64;25.40;98756.31;5071628;28;20165;-52
2021/08/20 08:43:16;;;;;;;4.28;2.83;;;;;;;36.14;25.73;98763.84;5071665;28;20043;-52
2021/08/20 08:45:43;;;;;;;5.00;3.28;;;;;;;36.41;25.48;98758.38;5070258;28;20029;-52
2021/08/20 08:48:11;;;;;;;9.02;3.45;;;;;;;36.91;24.87;98753.50;5071834;28;20028;-52
2021/08/20 08:50:38;;;;;;;10.18;3.35;;;;;;;37.07;24.66;98756.78;5071549;28;20557;-52
2021/08/20 08:53:04;;;;;;;7.35;3.17;;;;;;;37.04;25.15;98757.53;5071491;28;20024;-52
2021/08/20 08:55:31;;;;;;;6.90;2.83;;;;;;;37.26;24.67;98760.50;5071515;28;20425;-52
2021/08/20 08:57:57;;;;;;;6.38;2.83;;;;;;;37.70;23.96;98755.00;5071427;28;20104;-52
2021/08/20 09:00:37;;;;;;;3.42;2.63;;;;;;;38.18;23.70;98767.84;5071314;28;20024;-51
2021/08/20 09:03:04;;;;;;;8.82;3.00;;;;;;;38.59;22.95;98761.38;5070095;28;20088;-52
2021/08/20 09:05:43;;;;;;;8.63;2.75;;;;;;;38.75;22.79;98759.84;5070174;28;20040;-51
2021/08/20 09:08:18;;;;;;;7.55;3.08;;;;;;;38.74;22.72;98766.53;5071311;28;20024;-52
2021/08/20 09:10:50;;;;;;;10.85;3.20;;;;;;;38.39;23.60;98761.66;5070816;28;20044;-52
2021/08/20 09:13:16;;;;;;;5.13;2.88;;;;;;;38.53;22.94;98758.22;5075252;28;20027;-52
2021/08/20 09:15:46;;;;;;;6.05;2.70;;;;;;;38.16;23.36;98759.22;5073913;28;20451;-52
2021/08/20 09:18:22;;;;;;;7.20;3.35;;;;;;;38.09;23.55;98765.47;5073760;28;20550;-52
2021/08/20 09:20:50;;;;;;;3.63;2.72;;;;;;;38.21;23.22;98758.06;5075095;28;20031;-52
2021/08/20 09:23:18;;;;;;;4.57;2.40;;;;;;;38.23;23.07;98753.75;5073650;28;20028;-52
2021/08/20 09:25:47;;;;;;;5.45;3.08;;;;;;;38.22;23.68;98757.69;5073652;28;20406;-52
2021/08/20 09:28:23;;;;;;;7.47;2.63;;;;;;;38.16;23.45;98759.22;5074923;28;20056;-51
2021/08/20 09:30:58;;;;;;;5.13;2.83;;;;;;;38.41;23.11;98750.31;5075024;28;20037;-52
2021/08/20 09:33:42;;;;;;;5.07;2.08;;;;;;;38.87;22.83;98755.97;5075036;28;20452;-52
2021/08/20 09:36:10;;;;;;;2.03;1.70;;;;;;;38.97;22.19;98754.44;5074822;28;20066;-51
2021/08/20 09:38:41;;;;;;;3.80;1.88;;;;;;;39.37;21.99;98752.50;5074922;28;20107;-52
2021/08/20 09:41:12;;;;;;;5.10;2.38;;;;;;;39.14;21.94;98756.44;5074703;28;20103;-52
2021/08/20 09:43:42;;;;;;;4.28;2.10;;;;;;;39.33;22.35;98758.00;5074663;28;20029;-51
2021/08/20 09:46:11;;;;;;;9.07;3.08;;;;;;;39.65;22.05;98756.44;5074596;28;20032;-52
2021/08/20 09:48:52;;;;;;;5.30;2.53;;;;;;;39.74;21.95;98748.56;5074528;28;20017;-52
2021/08/20 09:51:36;;;;;;;5.35;2.88;;;;;;;40.05;21.94;98746.19;5074477;28;20112;-52
2021/08/20 09:54:05;;;;;;;5.30;2.58;;;;;;;39.54;21.81;98757.25;5074431;28;20093;-52
2021/08/20 09:56:32;;;;;;;6.05;2.80;;;;;;;37.81;23.82;98752.31;5056745;28;20514;-52
2021/08/20 09:59:00;;;;;;;4.90;2.50;;;;;;;36.43;25.33;98758.78;5072973;28;20024;-52
2021/08/20 10:01:35;;;;;;;6.43;2.70;;;;;;;36.77;25.34;98749.44;5074341;28;20032;-52
2021/08/20 10:04:04;;;;;;;8.00;2.95;;;;;;;35.85;26.36;98755.25;5074345;28;20498;-52
2021/08/20 10:06:35;;;;;;;3.40;2.33;;;;;;;36.22;26.61;98749.16;5074484;28;20024;-52
2021/08/20 10:09:22;;;;;;;6.35;3.15;;;;;;;37.49;25.30;98749.31;5074242;28;20103;-52
2021/08/20 10:11:51;;;;;;;4.75;2.10;;;;;;;38.33;23.49;98744.78;5107058;28;20074;-52
2021/08/20 10:14:24;;;;;;;3.40;2.03;;;;;;;38.92;23.01;98749.31;5114692;28;20016;-52
2021/08/20 10:16:52;;;;;;;3.83;2.38;;;;;;;37.98;23.45;98740.69;5114658;28;20022;-52
2021/08/20 10:19:18;;;;;;;3.97;2.38;;;;;;;36.43;24.90;98745.13;5096344;28;20026;-52
2021/08/20 10:21:44;;;;;;;2.95;2.30;;;;;;;34.83;26.94;98744.91;5114412;28;20095;-49
2021/08/20 10:24:13;;;;;;;10.20;2.47;;;;;;;34.68;27.79;98747.38;5114057;28;20102;-49
2021/08/20 10:26:46;;;;;;;7.35;2.20;;;;;;;35.52;26.51;98737.56;5096146;28;20443;-49
2021/08/20 10:29:14;;;;;;;5.93;2.88;;;;;;;36.67;25.22;98730.97;5096255;28;20059;-49
2021/08/20 10:31:42;;;;;;;5.18;1.92;;;;;;;37.48;24.31;98734.84;5114483;28;20073;-52
2021/08/20 10:34:30;;;;;;;7.03;2.53;;;;;;;37.95;23.94;98737.91;5096156;28;20019;-51
2021/08/20 10:37:17;;;;;;;3.63;1.88;;;;;;;37.98;24.18;98732.47;5114368;28;20031;-52
2021/08/20 10:39:48;;;;;;;6.97;2.30;;;;;;;37.98;23.71;98734.44;5114461;28;20063;-52
2021/08/20 10:42:17;;;;;;;2.72;2.22;;;;;;;37.74;24.02;98735.84;5114226;28;20019;-52
2021/08/20 10:44:45;;;;;;;9.00;2.17;;;;;;;38.16;23.23;98729.06;5095868;28;20026;-51
2021/08/20 10:47:28;;;;;;;3.05;2.13;;;;;;;38.42;22.67;98719.78;5114312;28;20435;-52
2021/08/20 10:50:10;;;;;;;2.13;1.75;;;;;;;38.16;23.75;98718.09;5114151;28;20588;-52
2021/08/20 10:52:49;;;;;;;5.63;2.05;;;;;;;38.38;23.52;98726.44;5113915;28;20032;-53
2021/08/20 10:55:19;;;;;;;3.58;1.80;;;;;;;38.75;22.41;98715.94;5113987;28;20528;-52
2021/08/20 10:57:55;;;;;;;2.47;1.70;;;;;;;39.29;21.97;98713.28;5113693;28;20040;-52
2021/08/20 11:00:21;;;;;;;3.78;2.05;;;;;;;39.31;22.08;98707.41;5095497;28;20580;-53
2021/08/20 11:02:53;;;;;;;3.95;1.85;;;;;;;39.37;22.18;98705.81;5113756;28;20032;-53
2021/08/20 11:05:48;;;;;;;3.25;1.73;;;;;;;39.41;22.31;98711.31;5113733;28;20102;-51
2021/08/20 11:08:34;;;;;;;4.40;1.92;;;;;;;39.64;22.03;98711.69;5113751;28;20027;-51
2021/08/20 11:11:02;;;;;;;6.15;1.88;;;;;;;40.26;21.39;98707.59;5112862;28;20131;-52
2021/08/20 11:13:28;;;;;;;4.15;1.63;;;;;;;40.57;20.59;98710.63;5113494;28;20027;-51
2021/08/20 11:15:55;;;;;;;3.10;1.80;;;;;;;39.79;21.75;98712.47;5095185;28;20032;-52
2021/08/20 11:18:42;;;;;;;4.32;1.60;;;;;;;39.69;21.55;98713.28;5113278;28;20020;-51
2021/08/20 11:21:08;;;;;;;2.92;1.33;;;;;;;40.05;21.05;98705.72;5113324;28;20031;-51
2021/08/20 11:23:34;;;;;;;3.92;1.90;;;;;;;40.67;20.53;98704.28;5078218;28;20019;-52
2021/08/20 11:26:03;;;;;;;4.43;1.75;;;;;;;40.86;20.04;98705.72;5113343;28;20028;-52
2021/08/20 11:28:32;;;;;;;4.47;1.60;;;;;;;40.45;20.18;98700.09;5113280;28;20071;-52
2021/08/20 11:31:03;;;;;;;4.95;2.20;;;;;;;39.49;21.23;98707.41;5095134;28;20031;-52
2021/08/20 11:33:41;;;;;;;2.97;1.85;;;;;;;39.23;21.77;98711.34;5113168;28;20071;-52